createdAt,value
2023-05-06T00:00:26.035Z,12.52
2023-05-06T00:01:26.047Z,12.51
2023-05-06T00:02:26.052Z,12.59
2023-05-06T00:03:26.270Z,12.56
2023-05-06T00:04:26.011Z,12.70
2023-05-06T00:05:25.974Z,12.66
2023-05-06T00:06:25.976Z,12.73
2023-05-06T00:07:26.100Z,12.70
2023-05-06T00:08:25.951Z,12.70
2023-05-06T00:09:25.967Z,12.69
2023-05-06T00:10:25.932Z,12.73
2023-05-06T00:11:25.929Z,12.69
2023-05-06T00:12:25.906Z,12.62
2023-05-06T00:13:25.963Z,12.62
2023-05-06T00:14:25.921Z,12.58
2023-05-06T00:15:25.891Z,12.44
2023-05-06T00:16:25.931Z,12.51
2023-05-06T00:17:25.939Z,12.49
2023-05-06T00:19:52.075Z,12.38
2023-05-06T00:22:24.221Z,12.36
2023-05-06T00:23:41.752Z,12.37
2023-05-06T00:24:34.378Z,12.38
2023-05-06T00:25:31.548Z,12.31
2023-05-06T00:26:18.963Z,12.31
2023-05-06T00:27:27.921Z,12.40
2023-05-06T00:28:20.249Z,12.40
2023-05-06T00:29:18.149Z,12.44
2023-05-06T00:30:18.087Z,12.44
2023-05-06T00:31:39.613Z,12.37
2023-05-06T00:32:36.265Z,12.38
2023-05-06T00:41:43.378Z,12.41
2023-05-06T00:42:26.735Z,12.36
2023-05-06T00:43:45.081Z,12.34
2023-05-06T00:44:31.365Z,12.29
2023-05-06T00:45:08.947Z,12.26
2023-05-06T00:47:36.751Z,12.11
2023-05-06T00:48:34.746Z,12.05
2023-05-06T00:49:34.785Z,12.11
2023-05-06T00:50:34.733Z,11.98
2023-05-06T00:51:34.708Z,11.97
2023-05-06T00:52:34.721Z,12.01
2023-05-06T00:53:34.714Z,11.94
2023-05-06T00:54:34.706Z,11.85
2023-05-06T00:55:34.745Z,11.94
2023-05-06T00:56:34.688Z,11.85
2023-05-06T00:57:34.766Z,11.88
2023-05-06T00:58:34.709Z,11.93
2023-05-06T00:59:34.659Z,11.96
2023-05-06T01:00:34.685Z,11.93
2023-05-06T01:01:34.783Z,11.85
2023-05-06T01:02:46.339Z,11.93
2023-05-06T01:03:35.789Z,11.84
2023-05-06T01:04:34.646Z,11.87
2023-05-06T01:05:34.632Z,11.78
2023-05-06T01:06:34.613Z,11.74
2023-05-06T01:07:34.676Z,11.79
2023-05-06T01:08:34.588Z,11.70
2023-05-06T01:09:34.603Z,11.70
2023-05-06T01:10:34.589Z,11.81
2023-05-06T01:11:34.569Z,11.82
2023-05-06T01:12:34.604Z,11.79
2023-05-06T01:13:34.617Z,11.78
2023-05-06T01:14:34.553Z,11.69
2023-05-06T01:15:34.537Z,11.72
2023-05-06T01:16:34.572Z,11.77
2023-05-06T01:17:34.556Z,11.75
2023-05-06T01:18:34.557Z,11.74
2023-05-06T01:19:34.565Z,11.70
2023-05-06T01:20:34.511Z,11.62
2023-05-06T01:21:34.562Z,11.62
2023-05-06T01:22:34.497Z,11.60
2023-05-06T01:23:34.471Z,11.64
2023-05-06T01:24:34.614Z,11.63
2023-05-06T01:25:34.563Z,11.62
2023-05-06T01:26:34.466Z,11.62
2023-05-06T01:27:34.449Z,11.66
2023-05-06T01:28:34.451Z,11.64
2023-05-06T01:29:34.508Z,11.54
2023-05-06T01:30:34.429Z,11.64
2023-05-06T01:31:34.527Z,11.57
2023-05-06T01:32:34.450Z,11.63
2023-05-06T01:33:34.393Z,11.69
2023-05-06T01:34:34.391Z,11.62
2023-05-06T01:35:34.407Z,11.67
2023-05-06T01:36:34.397Z,11.62
2023-05-06T01:37:34.449Z,11.60
2023-05-06T01:38:34.353Z,11.69
2023-05-06T01:39:34.375Z,11.74
2023-05-06T01:40:34.378Z,11.64
2023-05-06T01:41:34.353Z,11.72
2023-05-06T01:42:34.364Z,11.63
2023-05-06T01:43:34.567Z,11.67
2023-05-06T01:44:34.353Z,11.75
2023-05-06T01:45:34.394Z,11.64
2023-05-06T01:46:34.371Z,11.69
2023-05-06T01:47:34.350Z,11.66
2023-05-06T01:48:34.343Z,11.77
2023-05-06T01:49:34.333Z,11.81
2023-05-06T01:50:34.291Z,11.85
2023-05-06T01:51:34.299Z,11.84
2023-05-06T01:52:34.277Z,11.90
2023-05-06T01:53:34.277Z,11.90
2023-05-06T01:54:34.274Z,11.96
2023-05-06T01:55:34.297Z,12.00
2023-05-06T01:56:34.233Z,11.87
2023-05-06T01:57:34.272Z,11.82
2023-05-06T01:58:34.245Z,11.97
2023-05-06T01:59:34.226Z,11.94
2023-05-06T02:00:34.211Z,12.03
2023-05-06T02:01:34.279Z,11.96
2023-05-06T02:02:34.289Z,11.98
2023-05-06T02:03:34.280Z,12.01
2023-05-06T02:04:34.168Z,12.04
2023-05-06T02:05:34.171Z,12.03
2023-05-06T02:06:34.171Z,11.93
2023-05-06T02:07:34.191Z,12.05
2023-05-06T02:08:34.161Z,11.88
2023-05-06T02:09:34.131Z,11.98
2023-05-06T02:10:34.188Z,11.97
2023-05-06T02:11:34.167Z,11.97
2023-05-06T02:12:34.173Z,12.07
2023-05-06T02:13:34.153Z,12.04
2023-05-06T02:14:34.071Z,12.04
2023-05-06T02:15:34.132Z,11.87
2023-05-06T02:16:34.132Z,11.81
2023-05-06T02:17:34.129Z,11.82
2023-05-06T02:18:34.076Z,11.88
2023-05-06T02:19:34.093Z,11.84
2023-05-06T02:20:34.071Z,11.90
2023-05-06T02:21:34.064Z,11.94
2023-05-06T02:22:34.028Z,11.96
2023-05-06T02:23:34.033Z,11.98
2023-05-06T02:24:34.013Z,12.00
2023-05-06T02:25:34.074Z,11.94
2023-05-06T02:26:33.995Z,12.01
2023-05-06T02:27:34.010Z,12.11
2023-05-06T02:28:34.005Z,12.12
2023-05-06T02:29:33.993Z,12.12
2023-05-06T02:30:33.970Z,12.11
2023-05-06T02:31:34.117Z,12.11
2023-05-06T02:32:33.997Z,12.12
2023-05-06T02:33:33.998Z,12.11
2023-05-06T02:34:33.952Z,12.08
2023-05-06T02:35:33.956Z,12.12
2023-05-06T02:36:33.940Z,12.08
2023-05-06T02:37:33.949Z,11.87
2023-05-06T02:38:33.895Z,11.96
2023-05-06T02:39:33.914Z,11.93
2023-05-06T02:40:33.905Z,11.97
2023-05-06T02:41:33.885Z,11.90
2023-05-06T02:42:33.916Z,11.87
2023-05-06T02:43:33.938Z,11.93
2023-05-06T02:44:33.871Z,11.87
2023-05-06T02:45:33.914Z,11.84
2023-05-06T02:46:33.830Z,11.82
2023-05-06T02:47:33.883Z,11.82
2023-05-06T02:48:33.829Z,11.82
2023-05-06T02:49:34.330Z,11.72
2023-05-06T02:50:33.856Z,11.82
2023-05-06T02:51:33.815Z,11.88
2023-05-06T02:52:33.822Z,11.82
2023-05-06T02:53:33.811Z,11.82
2023-05-06T02:54:33.789Z,11.93
2023-05-06T02:55:33.851Z,11.81
2023-05-06T02:56:33.770Z,11.88
2023-05-06T02:57:33.776Z,11.85
2023-05-06T02:58:33.768Z,11.79
2023-05-06T02:59:33.750Z,11.84
2023-05-06T03:00:33.752Z,11.88
2023-05-06T03:01:33.896Z,11.75
2023-05-06T03:02:33.791Z,11.85
2023-05-06T03:03:33.744Z,11.85
2023-05-06T03:04:33.829Z,11.84
2023-05-06T03:05:33.810Z,11.85
2023-05-06T03:06:33.715Z,11.81
2023-05-06T03:07:33.783Z,11.84
2023-05-06T03:08:33.680Z,11.90
2023-05-06T03:09:33.693Z,11.87
2023-05-06T03:10:33.675Z,11.85
2023-05-06T03:11:33.660Z,11.63
2023-05-06T03:12:33.677Z,11.64
2023-05-06T03:13:33.737Z,11.60
2023-05-06T03:14:33.649Z,11.66
2023-05-06T03:15:33.737Z,11.64
2023-05-06T03:16:33.664Z,11.57
2023-05-06T03:17:33.636Z,11.59
2023-05-06T03:18:33.628Z,11.51
2023-05-06T03:19:33.675Z,11.46
2023-05-06T03:20:33.599Z,11.54
2023-05-06T03:21:33.681Z,11.39
2023-05-06T03:22:33.579Z,11.46
2023-05-06T03:23:33.613Z,11.51
2023-05-06T03:24:33.571Z,11.54
2023-05-06T03:25:33.635Z,11.49
2023-05-06T03:26:33.557Z,11.33
2023-05-06T03:27:33.539Z,11.38
2023-05-06T03:28:33.543Z,11.31
2023-05-06T03:29:33.543Z,11.17
2023-05-06T03:30:33.520Z,11.20
2023-05-06T03:31:33.619Z,11.20
2023-05-06T03:32:33.511Z,11.28
2023-05-06T03:33:33.528Z,11.31
2023-05-06T03:34:33.481Z,11.33
2023-05-06T03:35:33.509Z,11.33
2023-05-06T03:36:33.487Z,11.45
2023-05-06T03:37:33.566Z,11.36
2023-05-06T03:38:33.431Z,11.31
2023-05-06T03:39:33.457Z,11.23
2023-05-06T03:40:33.449Z,11.27
2023-05-06T03:41:33.440Z,11.20
2023-05-06T03:42:33.466Z,11.26
2023-05-06T03:43:33.765Z,11.24
2023-05-06T03:44:33.408Z,11.30
2023-05-06T03:45:33.387Z,11.31
2023-05-06T03:46:33.432Z,11.23
2023-05-06T03:47:33.456Z,11.20
2023-05-06T03:48:33.384Z,11.26
2023-05-06T03:49:33.446Z,11.16
2023-05-06T03:50:33.395Z,11.21
2023-05-06T03:51:33.369Z,11.19
2023-05-06T03:52:33.354Z,11.17
2023-05-06T03:53:33.457Z,11.11
2023-05-06T03:54:33.350Z,11.16
2023-05-06T03:55:33.879Z,11.17
2023-05-06T03:56:33.332Z,11.19
2023-05-06T03:57:33.335Z,11.21
2023-05-06T03:58:33.297Z,11.21
2023-05-06T03:59:33.312Z,11.20
2023-05-06T04:00:33.265Z,11.13
2023-05-06T04:01:33.312Z,11.13
2023-05-06T04:02:33.398Z,11.13
2023-05-06T04:03:33.357Z,11.12
2023-05-06T04:04:33.242Z,11.19
2023-05-06T04:05:33.240Z,11.16
2023-05-06T04:06:33.220Z,11.26
2023-05-06T04:07:33.257Z,11.16
2023-05-06T04:08:33.220Z,11.23
2023-05-06T04:09:33.205Z,11.21
2023-05-06T04:10:33.199Z,10.98
2023-05-06T04:11:33.196Z,10.94
2023-05-06T04:12:33.210Z,11.06
2023-05-06T04:13:33.233Z,11.06
2023-05-06T04:14:33.178Z,10.99
2023-05-06T04:15:33.171Z,10.93
2023-05-06T04:16:33.176Z,10.98
2023-05-06T04:17:33.174Z,10.88
2023-05-06T04:18:33.137Z,10.94
2023-05-06T04:19:33.188Z,10.99
2023-05-06T04:20:33.147Z,10.99
2023-05-06T04:21:33.126Z,11.03
2023-05-06T04:22:33.130Z,11.03
2023-05-06T04:23:33.111Z,11.11
2023-05-06T04:24:33.095Z,11.02
2023-05-06T04:25:33.295Z,10.93
2023-05-06T04:26:33.082Z,10.84
2023-05-06T04:27:33.060Z,10.81
2023-05-06T04:28:33.073Z,10.76
2023-05-06T04:29:33.057Z,10.87
2023-05-06T04:30:33.062Z,10.81
2023-05-06T04:31:33.153Z,10.72
2023-05-06T04:32:33.074Z,10.90
2023-05-06T04:33:33.042Z,10.87
2023-05-06T04:34:33.019Z,10.87
2023-05-06T04:35:33.012Z,10.86
2023-05-06T04:36:33.021Z,10.88
2023-05-06T04:37:33.059Z,10.86
2023-05-06T04:38:33.010Z,10.95
2023-05-06T04:39:32.997Z,10.87
2023-05-06T04:40:32.983Z,10.93
2023-05-06T04:41:33.525Z,10.88
2023-05-06T04:42:32.963Z,10.78
2023-05-06T04:43:32.998Z,10.72
2023-05-06T04:44:32.957Z,10.80
2023-05-06T04:45:32.954Z,10.98
2023-05-06T04:46:32.928Z,10.94
2023-05-06T04:47:32.925Z,10.98
2023-05-06T04:48:32.948Z,10.95
2023-05-06T04:49:32.942Z,10.99
2023-05-06T04:50:32.916Z,10.84
2023-05-06T04:51:32.888Z,11.02
2023-05-06T04:52:32.904Z,10.93
2023-05-06T04:53:32.888Z,10.99
2023-05-06T04:54:32.873Z,10.94
2023-05-06T04:55:32.906Z,11.03
2023-05-06T04:56:32.887Z,11.17
2023-05-06T04:57:32.903Z,11.16
2023-05-06T04:58:32.843Z,11.16
2023-05-06T04:59:32.834Z,11.21
2023-05-06T05:00:32.831Z,11.16
2023-05-06T05:01:33.111Z,11.24
2023-05-06T05:02:32.998Z,11.36
2023-05-06T05:03:32.932Z,11.30
2023-05-06T05:04:32.807Z,11.24
2023-05-06T05:05:32.793Z,11.24
2023-05-06T05:06:32.788Z,11.19
2023-05-06T05:07:32.835Z,11.13
2023-05-06T05:08:32.766Z,10.99
2023-05-06T05:09:32.754Z,10.99
2023-05-06T05:10:32.753Z,10.91
2023-05-06T05:11:32.753Z,10.99
2023-05-06T05:12:32.787Z,10.95
2023-05-06T05:13:32.824Z,10.99
2023-05-06T05:14:32.721Z,10.99
2023-05-06T05:15:32.723Z,10.99
2023-05-06T05:16:32.750Z,11.06
2023-05-06T05:17:32.733Z,11.01
2023-05-06T05:18:32.697Z,10.91
2023-05-06T05:19:32.721Z,10.81
2023-05-06T05:20:32.753Z,10.62
2023-05-06T05:21:32.676Z,10.57
2023-05-06T05:22:32.677Z,10.58
2023-05-06T05:23:32.663Z,10.49
2023-05-06T05:24:32.675Z,10.60
2023-05-06T05:25:32.734Z,10.76
2023-05-06T05:26:32.637Z,10.80
2023-05-06T05:27:32.636Z,10.76
2023-05-06T05:28:32.632Z,10.47
2023-05-06T05:29:32.685Z,10.32
2023-05-06T05:30:32.628Z,10.31
2023-05-06T05:31:32.716Z,10.18
2023-05-06T05:32:32.615Z,10.25
2023-05-06T05:33:32.619Z,10.35
2023-05-06T05:34:32.582Z,10.38
2023-05-06T05:35:32.567Z,10.43
2023-05-06T05:36:32.564Z,10.58
2023-05-06T05:37:32.617Z,10.66
2023-05-06T05:38:32.585Z,10.72
2023-05-06T05:39:32.553Z,10.83
2023-05-06T05:40:32.520Z,10.69
2023-05-06T05:41:32.523Z,10.47
2023-05-06T05:42:32.516Z,10.42
2023-05-06T05:43:32.559Z,10.39
2023-05-06T05:44:32.505Z,10.36
2023-05-06T05:45:32.538Z,10.42
2023-05-06T05:46:32.552Z,10.44
2023-05-06T05:47:32.528Z,10.52
2023-05-06T05:48:32.496Z,10.60
2023-05-06T05:49:32.524Z,10.75
2023-05-06T05:50:32.480Z,10.75
2023-05-06T05:51:32.471Z,11.03
2023-05-06T05:52:32.449Z,11.09
2023-05-06T05:53:32.424Z,11.21
2023-05-06T05:54:32.444Z,11.39
2023-05-06T05:55:32.494Z,11.28
2023-05-06T05:56:32.408Z,11.30
2023-05-06T05:57:32.422Z,11.35
2023-05-06T05:58:32.400Z,11.44
2023-05-06T05:59:32.400Z,11.42
2023-05-06T06:00:32.416Z,11.42
2023-05-06T06:01:32.796Z,11.26
2023-05-06T06:02:32.412Z,11.38
2023-05-06T06:03:32.538Z,11.28
2023-05-06T06:04:32.450Z,11.24
2023-05-06T06:05:32.348Z,11.11
2023-05-06T06:06:32.364Z,11.16
2023-05-06T06:07:32.374Z,11.16
2023-05-06T06:08:32.324Z,11.26
2023-05-06T06:09:32.329Z,11.33
2023-05-06T06:10:32.316Z,11.36
2023-05-06T06:11:32.328Z,11.53
2023-05-06T06:12:32.307Z,11.56
2023-05-06T06:13:32.441Z,11.63
2023-05-06T06:14:32.298Z,11.85
2023-05-06T06:15:32.274Z,11.77
2023-05-06T06:16:32.300Z,11.84
2023-05-06T06:17:32.400Z,11.67
2023-05-06T06:18:32.254Z,11.51
2023-05-06T06:19:32.283Z,11.48
2023-05-06T06:20:32.382Z,11.49
2023-05-06T06:21:32.232Z,11.62
2023-05-06T06:22:32.236Z,11.78
2023-05-06T06:23:32.201Z,11.70
2023-05-06T06:24:32.199Z,11.74
2023-05-06T06:25:32.264Z,11.88
2023-05-06T06:26:32.202Z,12.00
2023-05-06T06:27:32.199Z,12.11
2023-05-06T06:28:32.175Z,12.23
2023-05-06T06:29:32.178Z,12.46
2023-05-06T06:30:32.187Z,12.38
2023-05-06T06:31:32.249Z,12.41
2023-05-06T06:32:32.176Z,12.34
2023-05-06T06:33:32.197Z,12.00
2023-05-06T06:34:32.141Z,12.11
2023-05-06T06:35:32.116Z,12.30
2023-05-06T06:36:32.132Z,12.25
2023-05-06T06:37:32.177Z,12.26
2023-05-06T06:38:32.120Z,12.15
2023-05-06T06:39:32.111Z,12.07
2023-05-06T06:40:32.099Z,12.07
2023-05-06T06:41:32.084Z,11.94
2023-05-06T06:42:32.828Z,12.03
2023-05-06T06:43:32.113Z,11.82
2023-05-06T06:44:32.062Z,11.81
2023-05-06T06:45:32.061Z,11.94
2023-05-06T06:46:32.046Z,11.87
2023-05-06T06:47:32.094Z,11.82
2023-05-06T06:48:32.038Z,11.79
2023-05-06T06:49:32.116Z,11.88
2023-05-06T06:50:32.029Z,12.11
2023-05-06T06:51:32.014Z,12.29
2023-05-06T06:52:32.008Z,12.44
2023-05-06T06:53:32.025Z,12.48
2023-05-06T06:54:31.997Z,12.26
2023-05-06T06:55:32.041Z,12.15
2023-05-06T06:56:31.984Z,11.85
2023-05-06T06:57:32.004Z,11.98
2023-05-06T06:58:31.962Z,11.97
2023-05-06T06:59:31.960Z,12.08
2023-05-06T07:00:31.984Z,12.18
2023-05-06T07:01:32.000Z,12.30
2023-05-06T07:02:31.934Z,12.29
2023-05-06T07:03:31.929Z,12.31
2023-05-06T07:04:31.984Z,12.37
2023-05-06T07:05:32.051Z,12.29
2023-05-06T07:06:31.906Z,12.37
2023-05-06T07:07:32.474Z,12.49
2023-05-06T07:08:31.899Z,12.51
2023-05-06T07:09:32.497Z,12.62
2023-05-06T07:10:31.886Z,12.73
2023-05-06T07:11:31.873Z,12.79
2023-05-06T07:12:31.861Z,12.79
2023-05-06T07:13:31.882Z,12.51
2023-05-06T07:14:31.833Z,12.61
2023-05-06T07:15:31.829Z,12.69
2023-05-06T07:16:31.862Z,12.63
2023-05-06T07:17:31.843Z,12.70
2023-05-06T07:18:31.842Z,12.88
2023-05-06T07:19:31.881Z,12.98
2023-05-06T07:20:31.805Z,13.12
2023-05-06T07:21:31.861Z,13.12
2023-05-06T07:22:31.787Z,13.21
2023-05-06T07:23:32.231Z,13.41
2023-05-06T07:24:31.771Z,13.43
2023-05-06T07:25:31.845Z,13.46
2023-05-06T07:26:31.760Z,13.55
2023-05-06T07:27:31.750Z,13.73
2023-05-06T07:28:31.749Z,13.94
2023-05-06T07:29:31.730Z,14.02
2023-05-06T07:30:31.724Z,14.09
2023-05-06T07:31:31.933Z,14.12
2023-05-06T07:32:31.755Z,14.20
2023-05-06T07:33:31.772Z,13.98
2023-05-06T07:34:31.701Z,14.19
2023-05-06T07:35:31.707Z,14.27
2023-05-06T07:36:31.674Z,14.45
2023-05-06T07:37:31.779Z,14.44
2023-05-06T07:38:31.679Z,14.13
2023-05-06T07:39:31.653Z,14.23
2023-05-06T07:40:31.668Z,14.30
2023-05-06T07:41:31.660Z,14.24
2023-05-06T07:42:31.634Z,14.26
2023-05-06T07:43:31.686Z,14.38
2023-05-06T07:44:31.643Z,14.36
2023-05-06T07:45:31.639Z,14.42
2023-05-06T07:46:31.703Z,14.42
2023-05-06T07:47:31.790Z,14.56
2023-05-06T07:48:31.669Z,14.48
2023-05-06T07:49:31.642Z,14.63
2023-05-06T07:50:31.593Z,14.52
2023-05-06T07:51:31.564Z,14.64
2023-05-06T07:52:31.581Z,14.66
2023-05-06T07:53:31.569Z,14.85
2023-05-06T07:54:31.720Z,14.86
2023-05-06T07:55:33.343Z,14.83
2023-05-06T07:56:31.575Z,14.80
2023-05-06T07:57:31.534Z,14.93
2023-05-06T07:58:31.532Z,15.13
2023-05-06T07:59:31.531Z,15.11
2023-05-06T08:00:31.526Z,14.94
2023-05-06T08:01:31.533Z,15.03
2023-05-06T08:02:31.648Z,14.94
2023-05-06T08:03:31.620Z,14.85
2023-05-06T08:04:31.517Z,14.71
2023-05-06T08:05:31.473Z,14.90
2023-05-06T08:06:31.476Z,14.74
2023-05-06T08:07:31.535Z,14.61
2023-05-06T08:08:31.453Z,14.74
2023-05-06T08:09:31.502Z,14.93
2023-05-06T08:10:31.454Z,15.22
2023-05-06T08:11:31.435Z,15.46
2023-05-06T08:12:31.518Z,15.41
2023-05-06T08:13:31.669Z,15.58
2023-05-06T08:14:31.469Z,15.73
2023-05-06T08:15:31.401Z,15.91
2023-05-06T08:16:31.434Z,16.06
2023-05-06T08:17:31.432Z,16.26
2023-05-06T08:18:31.418Z,16.42
2023-05-06T08:19:31.417Z,16.45
2023-05-06T08:20:31.387Z,16.66
2023-05-06T08:21:31.364Z,16.77
2023-05-06T08:22:31.353Z,16.75
2023-05-06T08:23:31.366Z,16.69
2023-05-06T08:24:31.334Z,16.57
2023-05-06T08:25:31.428Z,16.60
2023-05-06T08:26:31.350Z,16.33
2023-05-06T08:27:31.330Z,16.06
2023-05-06T08:28:31.297Z,15.96
2023-05-06T08:29:31.309Z,15.92
2023-05-06T08:30:31.322Z,16.37
2023-05-06T08:31:31.377Z,16.60
2023-05-06T08:32:31.312Z,16.75
2023-05-06T08:33:31.284Z,16.88
2023-05-06T08:34:31.267Z,16.99
2023-05-06T08:35:31.262Z,17.27
2023-05-06T08:36:31.276Z,17.46
2023-05-06T08:37:31.308Z,17.68
2023-05-06T08:38:31.253Z,17.81
2023-05-06T08:39:31.237Z,17.91
2023-05-06T08:40:31.216Z,17.84
2023-05-06T08:41:31.221Z,17.71
2023-05-06T08:42:31.209Z,17.58
2023-05-06T08:43:31.246Z,17.86
2023-05-06T08:44:31.199Z,17.47
2023-05-06T08:45:31.234Z,17.06
2023-05-06T08:46:31.214Z,17.07
2023-05-06T08:47:31.218Z,17.30
2023-05-06T08:48:31.176Z,17.70
2023-05-06T08:49:31.227Z,17.40
2023-05-06T08:50:31.192Z,17.02
2023-05-06T08:51:31.169Z,17.22
2023-05-06T08:52:31.135Z,17.38
2023-05-06T08:53:31.134Z,17.24
2023-05-06T08:54:31.120Z,17.55
2023-05-06T08:55:31.172Z,17.62
2023-05-06T08:56:31.101Z,17.79
2023-05-06T08:57:31.196Z,17.74
2023-05-06T08:58:31.110Z,17.58
2023-05-06T08:59:31.096Z,17.89
2023-05-06T09:00:31.087Z,18.10
2023-05-06T09:01:31.141Z,18.23
2023-05-06T09:02:31.153Z,18.38
2023-05-06T09:03:31.220Z,18.42
2023-05-06T09:04:31.037Z,18.68
2023-05-06T09:05:31.061Z,18.38
2023-05-06T09:06:31.122Z,18.59
2023-05-06T09:07:31.083Z,18.78
2023-05-06T09:08:31.017Z,18.86
2023-05-06T09:09:31.018Z,18.71
2023-05-06T09:10:31.045Z,18.94
2023-05-06T09:11:31.037Z,18.75
2023-05-06T09:12:31.018Z,18.78
2023-05-06T09:13:31.104Z,18.78
2023-05-06T09:14:30.986Z,18.64
2023-05-06T09:15:30.966Z,18.74
2023-05-06T09:16:31.052Z,18.47
2023-05-06T09:17:30.986Z,18.75
2023-05-06T09:18:30.963Z,18.51
2023-05-06T09:19:31.208Z,18.64
2023-05-06T09:20:30.941Z,18.59
2023-05-06T09:21:30.937Z,18.56
2023-05-06T09:22:30.913Z,18.46
2023-05-06T09:23:30.919Z,18.60
2023-05-06T09:24:30.911Z,18.69
2023-05-06T09:25:30.941Z,18.59
2023-05-06T09:26:30.908Z,18.97
2023-05-06T09:27:30.893Z,19.15
2023-05-06T09:28:30.890Z,19.15
2023-05-06T09:29:30.910Z,19.32
2023-05-06T09:30:30.872Z,19.23
2023-05-06T09:31:30.972Z,18.94
2023-05-06T09:32:30.858Z,19.17
2023-05-06T09:33:30.860Z,19.46
2023-05-06T09:34:30.868Z,19.50
2023-05-06T09:35:30.820Z,19.94
2023-05-06T09:36:30.823Z,20.02
2023-05-06T09:37:30.882Z,19.95
2023-05-06T09:38:30.847Z,19.32
2023-05-06T09:39:30.851Z,19.60
2023-05-06T09:40:30.799Z,19.90
2023-05-06T09:41:30.812Z,20.27
2023-05-06T09:42:30.784Z,20.17
2023-05-06T09:43:30.827Z,20.31
2023-05-06T09:44:30.758Z,20.08
2023-05-06T09:45:30.806Z,20.37
2023-05-06T09:46:30.821Z,20.54
2023-05-06T09:47:30.790Z,20.30
2023-05-06T09:48:30.759Z,20.57
2023-05-06T09:49:30.771Z,20.46
2023-05-06T09:50:30.725Z,19.97
2023-05-06T09:51:30.712Z,20.16
2023-05-06T09:52:30.747Z,20.56
2023-05-06T09:53:30.718Z,20.94
2023-05-06T09:54:30.722Z,21.36
2023-05-06T09:55:30.793Z,21.43
2023-05-06T09:56:30.683Z,21.64
2023-05-06T09:57:30.683Z,21.42
2023-05-06T09:58:30.714Z,21.28
2023-05-06T09:59:30.660Z,21.22
2023-05-06T10:00:30.662Z,21.42
2023-05-06T10:01:36.905Z,21.90
2023-05-06T10:02:31.800Z,22.35
2023-05-06T10:03:30.809Z,22.88
2023-05-06T10:04:30.699Z,23.15
2023-05-06T10:05:30.703Z,23.29
2023-05-06T10:06:30.607Z,23.21
2023-05-06T10:07:30.693Z,22.70
2023-05-06T10:08:30.667Z,21.83
2023-05-06T10:09:30.607Z,21.26
2023-05-06T10:10:30.601Z,21.75
2023-05-06T10:11:30.594Z,21.94
2023-05-06T10:12:30.564Z,22.08
2023-05-06T10:13:30.582Z,22.41
2023-05-06T10:14:30.589Z,22.57
2023-05-06T10:15:30.562Z,22.44
2023-05-06T10:16:30.600Z,22.14
2023-05-06T10:17:30.607Z,22.19
2023-05-06T10:18:30.551Z,22.15
2023-05-06T10:19:30.569Z,21.82
2023-05-06T10:20:30.591Z,21.74
2023-05-06T10:21:30.513Z,22.04
2023-05-06T10:22:30.481Z,22.24
2023-05-06T10:23:30.471Z,22.33
2023-05-06T10:24:30.472Z,23.15
2023-05-06T10:25:30.756Z,23.04
2023-05-06T10:26:30.464Z,22.75
2023-05-06T10:27:30.509Z,22.11
2023-05-06T10:28:31.608Z,21.85
2023-05-06T10:29:30.498Z,21.79
2023-05-06T10:30:30.427Z,20.57
2023-05-06T10:31:30.515Z,20.27
2023-05-06T10:32:30.503Z,19.80
2023-05-06T10:33:30.482Z,19.87
2023-05-06T10:34:30.395Z,20.30
2023-05-06T10:35:30.399Z,20.38
2023-05-06T10:36:30.405Z,20.34
2023-05-06T10:37:30.907Z,20.60
2023-05-06T10:38:30.372Z,20.96
2023-05-06T10:39:30.369Z,20.85
2023-05-06T10:40:30.365Z,20.58
2023-05-06T10:41:30.440Z,21.11
2023-05-06T10:42:30.346Z,21.73
2023-05-06T10:43:30.439Z,22.26
2023-05-06T10:44:30.353Z,22.64
2023-05-06T10:45:30.349Z,22.51
2023-05-06T10:46:30.326Z,21.66
2023-05-06T10:47:30.340Z,20.73
2023-05-06T10:48:30.318Z,20.87
2023-05-06T10:49:30.436Z,20.96
2023-05-06T10:50:30.277Z,21.05
2023-05-06T10:51:30.283Z,21.61
2023-05-06T10:52:30.277Z,20.73
2023-05-06T10:53:30.266Z,20.48
2023-05-06T10:54:30.271Z,20.88
2023-05-06T10:55:30.288Z,21.12
2023-05-06T10:56:30.277Z,21.58
2023-05-06T10:57:30.245Z,22.39
2023-05-06T10:58:30.227Z,23.57
2023-05-06T10:59:30.239Z,24.29
2023-05-06T11:00:30.204Z,23.52
2023-05-06T11:01:30.260Z,22.12
2023-05-06T11:02:30.300Z,22.05
2023-05-06T11:03:30.364Z,22.42
2023-05-06T11:04:30.201Z,21.89
2023-05-06T11:05:30.279Z,20.75
2023-05-06T11:06:30.165Z,21.55
2023-05-06T11:07:30.215Z,21.45
2023-05-06T11:08:30.194Z,22.27
2023-05-06T11:09:30.185Z,22.99
2023-05-06T11:10:30.163Z,22.93
2023-05-06T11:11:30.213Z,23.53
2023-05-06T11:12:30.127Z,23.16
2023-05-06T11:13:30.426Z,23.25
2023-05-06T11:14:30.159Z,24.14
2023-05-06T11:15:30.105Z,24.80
2023-05-06T11:16:30.153Z,25.44
2023-05-06T11:17:30.132Z,25.89
2023-05-06T11:18:30.071Z,25.12
2023-05-06T11:19:30.204Z,24.21
2023-05-06T11:20:30.060Z,23.96
2023-05-06T11:21:30.123Z,24.16
2023-05-06T11:22:30.034Z,23.59
2023-05-06T11:23:30.134Z,23.45
2023-05-06T11:24:30.136Z,23.53
2023-05-06T11:25:30.107Z,23.12
2023-05-06T11:26:30.144Z,22.78
2023-05-06T11:27:30.025Z,22.67
2023-05-06T11:28:30.034Z,22.67
2023-05-06T11:29:30.068Z,22.72
2023-05-06T11:30:30.019Z,22.59
2023-05-06T11:31:30.486Z,22.56
2023-05-06T11:32:30.028Z,22.59
2023-05-06T11:33:30.000Z,22.52
2023-05-06T11:34:29.985Z,22.59
2023-05-06T11:35:29.939Z,22.61
2023-05-06T11:36:29.941Z,23.18
2023-05-06T11:37:30.116Z,23.18
2023-05-06T11:38:29.925Z,23.42
2023-05-06T11:39:29.935Z,24.11
2023-05-06T11:40:29.946Z,24.59
2023-05-06T11:41:29.943Z,24.83
2023-05-06T11:42:29.924Z,24.14
2023-05-06T11:43:29.935Z,23.90
2023-05-06T11:44:29.880Z,24.63
2023-05-06T11:45:29.874Z,24.51
2023-05-06T11:46:29.941Z,23.99
2023-05-06T11:47:29.931Z,24.42
2023-05-06T11:48:29.936Z,23.97
2023-05-06T11:49:29.967Z,23.38
2023-05-06T11:50:29.904Z,23.78
2023-05-06T11:51:29.926Z,23.32
2023-05-06T11:52:29.907Z,22.31
2023-05-06T11:53:29.937Z,21.63
2023-05-06T11:54:29.862Z,21.08
2023-05-06T11:55:29.871Z,21.28
2023-05-06T11:56:29.877Z,21.53
2023-05-06T11:57:29.804Z,21.90
2023-05-06T11:58:29.796Z,21.81
2023-05-06T11:59:29.805Z,21.63
2023-05-06T12:00:29.817Z,21.61
2023-05-06T12:01:29.831Z,21.19
2023-05-06T12:02:29.840Z,21.08
2023-05-06T12:03:29.912Z,21.12
2023-05-06T12:04:29.794Z,21.22
2023-05-06T12:05:29.732Z,21.61
2023-05-06T12:06:29.743Z,21.31
2023-05-06T12:07:29.783Z,21.37
2023-05-06T12:08:29.709Z,21.56
2023-05-06T12:09:29.721Z,22.61
2023-05-06T12:10:29.761Z,23.59
2023-05-06T12:11:29.726Z,24.18
2023-05-06T12:12:29.719Z,24.82
2023-05-06T12:13:29.732Z,24.75
2023-05-06T12:14:29.673Z,23.79
2023-05-06T12:15:29.669Z,22.84
2023-05-06T12:16:29.657Z,22.19
2023-05-06T12:17:29.668Z,21.83
2023-05-06T12:18:29.665Z,22.45
2023-05-06T12:19:29.716Z,23.26
2023-05-06T12:20:29.643Z,23.62
2023-05-06T12:21:29.623Z,24.31
2023-05-06T12:22:29.610Z,24.48
2023-05-06T12:23:29.655Z,24.42
2023-05-06T12:24:29.602Z,24.39
2023-05-06T12:25:29.745Z,23.82
2023-05-06T12:26:29.549Z,23.37
2023-05-06T12:27:29.595Z,23.31
2023-05-06T12:28:29.607Z,23.45
2023-05-06T12:29:29.587Z,23.41
2023-05-06T12:30:29.552Z,23.07
2023-05-06T12:31:29.583Z,22.94
2023-05-06T12:32:29.632Z,22.66
2023-05-06T12:33:29.545Z,22.69
2023-05-06T12:34:29.543Z,22.42
2023-05-06T12:35:29.528Z,21.85
2023-05-06T12:36:29.495Z,21.74
2023-05-06T12:37:29.956Z,21.68
2023-05-06T12:38:29.491Z,21.66
2023-05-06T12:39:29.508Z,21.79
2023-05-06T12:40:29.525Z,21.77
2023-05-06T12:41:29.506Z,21.81
2023-05-06T12:42:29.453Z,21.73
2023-05-06T12:43:29.513Z,21.90
2023-05-06T12:44:29.462Z,22.02
2023-05-06T12:45:29.478Z,22.29
2023-05-06T12:46:29.521Z,22.36
2023-05-06T12:47:29.564Z,22.39
2023-05-06T12:48:29.439Z,22.42
2023-05-06T12:49:29.464Z,22.30
2023-05-06T12:50:29.386Z,22.30
2023-05-06T12:51:29.423Z,22.17
2023-05-06T12:52:29.416Z,22.06
2023-05-06T12:53:29.399Z,22.09
2023-05-06T12:54:29.471Z,22.12
2023-05-06T12:55:29.500Z,22.24
2023-05-06T12:56:29.396Z,21.85
2023-05-06T12:57:29.589Z,21.30
2023-05-06T12:58:29.359Z,21.70
2023-05-06T12:59:29.344Z,22.35
2023-05-06T13:00:29.340Z,22.26
2023-05-06T13:01:29.434Z,22.29
2023-05-06T13:02:29.407Z,22.21
2023-05-06T13:03:29.390Z,22.41
2023-05-06T13:04:29.291Z,22.49